Terminal Aerodrome Forecast
Issued by NWS Bismarck, ND

Home | Current Version | Previous Version | Graphics & Text | Print | Product List | Glossary On
Versions: 1 2 3 4 5 6 7 8 9 10 11 12 13 14 15 16 17 18
000
FTUS43 KBIS 291735
TAFBIS
TAF
KBIS 291735Z 2918/3018 18004KT 5SM FU VV035
     FM292100 19012KT 6SM FU FEW250
     FM300300 14005KT 5SM FU SCT035
     FM301600 18014G22KT 6SM FU SCT100=

USA.gov is the U.S. government's official web portal to all federal, state and local government web resources and services.